Time;durP1;ratioP1;P1;durP2;ratioP2;P2;SDS_P1;SDS_P2;PMS_P1;PMS_P2;Temp;Humidity;BMP_temperature;BMP_pressure;BME280_temperature;BME280_humidity;BME280_pressure;Samples;Min_cycle;Max_cycle;Signal;HPM_P1;HPM_P2
2023/07/29 00:00:51;;;;;;;7.43;5.65;;;;;;;;;;5093130;28;20510;-78
2023/07/29 00:03:18;;;;;;;6.30;4.70;;;;;;;;;;5088946;28;20504;-77
2023/07/29 00:05:46;;;;;;;5.55;5.05;;;;;;;;;;5092304;28;20487;-77
2023/07/29 00:08:13;;;;;;;6.47;5.85;;;;;;;;;;5066511;28;20896;-77
2023/07/29 00:10:40;;;;;;;59.45;55.72;;;;;;;;;;5093198;28;20963;-77
2023/07/29 00:13:07;;;;;;;7.05;5.20;;;;;;;;;;5086876;28;20527;-79
2023/07/29 00:15:34;;;;;;;143.13;134.10;;;;;;;;;;5087815;28;20429;-77
2023/07/29 00:18:02;;;;;;;527.63;473.67;;;;;;;;;;5072831;28;20814;-79
2023/07/29 00:20:32;;;;;;;331.40;309.03;;;;;;;;;;5108316;28;20418;-77
2023/07/29 00:23:02;;;;;;;338.15;314.65;;;;;;;;;;5083195;28;20422;-77
2023/07/29 00:25:35;;;;;;;182.70;170.77;;;;;;;;;;5091685;28;20457;-77
2023/07/29 00:28:02;;;;;;;32.13;30.08;;;;;;;;;;5087133;28;20510;-76
2023/07/29 00:30:30;;;;;;;222.50;206.90;;;;;;;;;;5081172;28;20439;-78
2023/07/29 00:33:00;;;;;;;527.20;480.58;;;;;;;;;;5080066;28;20976;-77
2023/07/29 00:35:27;;;;;;;520.85;477.77;;;;;;;;;;5088610;28;20465;-77
2023/07/29 00:37:54;;;;;;;307.30;285.67;;;;;;;;;;5090550;28;20517;-76
2023/07/29 00:40:22;;;;;;;152.05;141.77;;;;;;;;;;5075884;28;20937;-77
2023/07/29 00:42:50;;;;;;;5.65;4.53;;;;;;;;;;5096415;28;20424;-77
2023/07/29 00:45:21;;;;;;;5.55;4.82;;;;;;;;;;5084128;28;20453;-78
2023/07/29 00:47:50;;;;;;;196.47;181.27;;;;;;;;;;5092356;28;20780;-78
2023/07/29 00:50:18;;;;;;;557.92;504.33;;;;;;;;;;5084024;28;20911;-77
2023/07/29 00:52:45;;;;;;;382.50;350.50;;;;;;;;;;5091967;28;20888;-77
2023/07/29 00:55:13;;;;;;;587.47;448.05;;;;;;;;;;5096394;28;20888;-77
2023/07/29 00:57:40;;;;;;;401.57;367.13;;;;;;;;;;5089709;28;20487;-77
2023/07/29 01:00:08;;;;;;;489.27;448.92;;;;;;;;;;5091362;28;20510;-77
2023/07/29 01:02:38;;;;;;;394.90;364.92;;;;;;;;;;5091448;28;20425;-76
2023/07/29 01:05:09;;;;;;;530.07;464.30;;;;;;;;;;5087599;28;20422;-76
2023/07/29 01:07:56;;;;;;;203.43;187.25;;;;;;;;;;5090127;28;20430;-77
2023/07/29 01:10:45;;;;;;;6.60;6.20;;;;;;;;;;5092227;28;20426;-77
2023/07/29 01:13:22;;;;;;;3.10;2.70;;;;;;;;;;5093249;28;20428;-78
2023/07/29 01:16:00;;;;;;;52.47;49.10;;;;;;;;;;5093618;28;20434;-76
2023/07/29 01:18:36;;;;;;;548.50;492.65;;;;;;;;;;5083378;28;20433;-77
2023/07/29 01:21:04;;;;;;;10.32;9.50;;;;;;;;;;5071420;28;20434;-78
2023/07/29 01:23:33;;;;;;;3.07;2.57;;;;;;;;;;5077133;28;20426;-76
2023/07/29 01:26:01;;;;;;;3.00;2.80;;;;;;;;;;5091004;28;20429;-77
2023/07/29 01:28:31;;;;;;;5.27;2.70;;;;;;;;;;5099947;28;20429;-77
2023/07/29 01:31:05;;;;;;;2.85;2.40;;;;;;;;;;5091068;28;20433;-77
2023/07/29 01:33:36;;;;;;;2.80;2.50;;;;;;;;;;5091958;28;20475;-79
2023/07/29 01:36:06;;;;;;;2.88;2.60;;;;;;;;;;5083358;28;20458;-76
2023/07/29 01:38:35;;;;;;;6.95;6.55;;;;;;;;;;5096498;28;20849;-76
2023/07/29 01:41:03;;;;;;;116.60;108.93;;;;;;;;;;5090353;28;20434;-76
2023/07/29 01:43:30;;;;;;;598.20;431.13;;;;;;;;;;5076862;28;20427;-77
2023/07/29 01:45:57;;;;;;;586.05;428.63;;;;;;;;;;5087465;28;20425;-78
2023/07/29 01:48:25;;;;;;;117.93;110.87;;;;;;;;;;5089907;28;20425;-77
2023/07/29 01:50:52;;;;;;;367.30;341.42;;;;;;;;;;5090586;28;20487;-75
2023/07/29 01:53:22;;;;;;;551.40;504.60;;;;;;;;;;5100705;28;20432;-77
2023/07/29 01:55:52;;;;;;;600.65;431.35;;;;;;;;;;5094515;28;20847;-76
2023/07/29 01:58:19;;;;;;;623.22;471.35;;;;;;;;;;5096074;28;20866;-76
2023/07/29 02:00:49;;;;;;;633.30;489.48;;;;;;;;;;5090237;28;20542;-77
2023/07/29 02:03:17;;;;;;;575.13;514.47;;;;;;;;;;5090279;28;20425;-77
2023/07/29 02:05:44;;;;;;;195.30;181.35;;;;;;;;;;5081413;28;20483;-77
2023/07/29 02:08:12;;;;;;;43.50;40.83;;;;;;;;;;5082220;28;20433;-76
2023/07/29 02:10:39;;;;;;;74.88;70.22;;;;;;;;;;5093723;28;20436;-77
2023/07/29 02:13:06;;;;;;;2.15;1.95;;;;;;;;;;5088213;28;20435;-77
2023/07/29 02:15:33;;;;;;;3.28;2.35;;;;;;;;;;5079134;28;20454;-78
2023/07/29 02:18:01;;;;;;;24.98;23.48;;;;;;;;;;5077754;28;20513;-76
2023/07/29 02:20:29;;;;;;;2.58;1.95;;;;;;;;;;5086671;28;20457;-77
2023/07/29 02:22:56;;;;;;;2.85;1.85;;;;;;;;;;5083651;28;20859;-76
2023/07/29 02:25:23;;;;;;;87.07;81.83;;;;;;;;;;5087934;28;20479;-77
2023/07/29 02:27:53;;;;;;;538.80;490.97;;;;;;;;;;5076870;28;20437;-76
2023/07/29 02:30:21;;;;;;;592.90;541.97;;;;;;;;;;5102789;28;20830;-76
2023/07/29 02:32:48;;;;;;;617.47;517.97;;;;;;;;;;5092441;28;20432;-77
2023/07/29 02:35:16;;;;;;;497.77;457.67;;;;;;;;;;5092985;28;20769;-77
2023/07/29 02:37:43;;;;;;;562.73;514.37;;;;;;;;;;5082841;28;20428;-75
2023/07/29 02:40:11;;;;;;;607.13;551.93;;;;;;;;;;5089381;28;20421;-73
2023/07/29 02:42:41;;;;;;;325.42;300.33;;;;;;;;;;5092593;28;20923;-74
2023/07/29 02:45:10;;;;;;;240.30;222.82;;;;;;;;;;5090376;28;20491;-73
2023/07/29 02:47:46;;;;;;;66.28;62.13;;;;;;;;;;5089823;28;20481;-74
2023/07/29 02:50:14;;;;;;;328.25;303.38;;;;;;;;;;5092662;28;20433;-73
2023/07/29 02:52:41;;;;;;;238.25;221.20;;;;;;;;;;5088779;28;20504;-74
2023/07/29 02:55:10;;;;;;;117.38;109.97;;;;;;;;;;5093545;28;20421;-73
2023/07/29 02:57:37;;;;;;;97.38;91.03;;;;;;;;;;5087778;28;20436;-73
2023/07/29 03:00:07;;;;;;;70.05;64.90;;;;;;;;;;5080716;28;20510;-71
2023/07/29 03:02:34;;;;;;;6.13;5.15;;;;;;;;;;5087644;28;20434;-73
2023/07/29 03:05:02;;;;;;;230.20;181.77;;;;;;;;;;5091920;28;20418;-74
2023/07/29 03:07:32;;;;;;;531.25;325.27;;;;;;;;;;5085108;28;20479;-74
2023/07/29 03:09:59;;;;;;;523.10;314.52;;;;;;;;;;5073931;28;20441;-74
2023/07/29 03:12:26;;;;;;;516.60;308.53;;;;;;;;;;5087603;28;20964;-74
2023/07/29 03:14:53;;;;;;;506.30;288.88;;;;;;;;;;5081111;28;20518;-74
2023/07/29 03:17:20;;;;;;;501.53;280.27;;;;;;;;;;5072546;28;20423;-74
2023/07/29 03:19:51;;;;;;;497.80;272.52;;;;;;;;;;5086382;28;20436;-74
2023/07/29 03:22:21;;;;;;;493.42;267.38;;;;;;;;;;5086178;28;20809;-75
2023/07/29 03:24:52;;;;;;;487.75;262.00;;;;;;;;;;5090406;28;20425;-75
2023/07/29 03:27:22;;;;;;;493.83;264.50;;;;;;;;;;5086293;28;20897;-74
2023/07/29 03:29:49;;;;;;;526.28;307.90;;;;;;;;;;5085080;28;20972;-73
2023/07/29 03:32:16;;;;;;;511.33;293.90;;;;;;;;;;5083225;28;20430;-74
2023/07/29 03:34:43;;;;;;;522.70;314.47;;;;;;;;;;5078849;28;20456;-73
2023/07/29 03:37:10;;;;;;;527.47;326.67;;;;;;;;;;5073515;28;20930;-74
2023/07/29 03:39:38;;;;;;;482.10;259.00;;;;;;;;;;5077208;28;20464;-75
2023/07/29 03:42:05;;;;;;;480.50;251.80;;;;;;;;;;5089353;28;21004;-74
2023/07/29 03:44:33;;;;;;;481.65;233.63;;;;;;;;;;5078247;28;20430;-74
2023/07/29 03:47:03;;;;;;;484.90;254.90;;;;;;;;;;5090318;28;20526;-74
2023/07/29 03:49:30;;;;;;;483.30;252.95;;;;;;;;;;5091284;28;20454;-74
2023/07/29 03:52:00;;;;;;;483.20;240.02;;;;;;;;;;5071285;28;20438;-73
2023/07/29 03:54:30;;;;;;;484.02;247.57;;;;;;;;;;5091985;28;20483;-73
2023/07/29 03:56:57;;;;;;;514.90;300.15;;;;;;;;;;5092090;28;20491;-74
2023/07/29 03:59:24;;;;;;;526.80;321.45;;;;;;;;;;5085763;28;20523;-74
2023/07/29 04:01:54;;;;;;;542.85;345.33;;;;;;;;;;5081908;28;20438;-74
2023/07/29 04:04:22;;;;;;;535.65;363.30;;;;;;;;;;5071726;28;20463;-74
2023/07/29 04:06:49;;;;;;;352.88;295.20;;;;;;;;;;5073911;28;20434;-75
2023/07/29 04:09:16;;;;;;;538.60;373.45;;;;;;;;;;5082623;28;20455;-75
2023/07/29 04:11:47;;;;;;;501.88;387.70;;;;;;;;;;5088558;28;20539;-73
2023/07/29 04:14:14;;;;;;;467.83;420.13;;;;;;;;;;5090797;28;21177;-74
2023/07/29 04:16:41;;;;;;;470.23;426.70;;;;;;;;;;5088539;28;20462;-75
2023/07/29 04:19:14;;;;;;;478.65;427.42;;;;;;;;;;5089961;28;20430;-74
2023/07/29 04:21:41;;;;;;;480.50;424.33;;;;;;;;;;5091686;28;20426;-75
2023/07/29 04:24:11;;;;;;;482.60;429.55;;;;;;;;;;5069939;28;20427;-74
2023/07/29 04:26:39;;;;;;;485.60;433.50;;;;;;;;;;5084948;28;20431;-73
2023/07/29 04:29:09;;;;;;;559.10;363.55;;;;;;;;;;5089827;28;20777;-74
2023/07/29 04:31:36;;;;;;;554.33;345.45;;;;;;;;;;5086575;28;20429;-73
2023/07/29 04:34:05;;;;;;;539.37;321.67;;;;;;;;;;5091411;28;20509;-74
2023/07/29 04:36:32;;;;;;;533.85;311.15;;;;;;;;;;5080880;28;20430;-76
2023/07/29 04:39:00;;;;;;;539.60;328.02;;;;;;;;;;5088597;28;20813;-74
2023/07/29 04:41:27;;;;;;;535.67;308.52;;;;;;;;;;5088803;28;20453;-74
2023/07/29 04:43:54;;;;;;;531.90;305.02;;;;;;;;;;5089811;28;20425;-74
2023/07/29 04:46:22;;;;;;;536.55;320.52;;;;;;;;;;5084523;28;20453;-74
2023/07/29 04:48:49;;;;;;;533.42;312.40;;;;;;;;;;5087911;28;20891;-74
2023/07/29 04:51:16;;;;;;;536.00;321.67;;;;;;;;;;5089799;28;20434;-74
2023/07/29 04:53:43;;;;;;;532.78;311.70;;;;;;;;;;5078873;28;21262;-75
2023/07/29 04:56:11;;;;;;;534.63;314.13;;;;;;;;;;5085001;28;20429;-74
2023/07/29 04:58:38;;;;;;;535.03;311.15;;;;;;;;;;5085570;28;20508;-74
2023/07/29 05:01:05;;;;;;;537.65;317.63;;;;;;;;;;5084961;28;21149;-75
2023/07/29 05:03:33;;;;;;;537.67;320.70;;;;;;;;;;5089610;28;20929;-75
2023/07/29 05:06:00;;;;;;;533.40;311.02;;;;;;;;;;5088696;28;20436;-75
2023/07/29 05:08:28;;;;;;;539.30;371.95;;;;;;;;;;5079102;28;20799;-75
2023/07/29 05:10:55;;;;;;;555.35;367.08;;;;;;;;;;5091407;28;20429;-76
2023/07/29 05:13:23;;;;;;;583.40;417.85;;;;;;;;;;5089947;28;20931;-74
2023/07/29 05:15:50;;;;;;;15.32;14.43;;;;;;;;;;5090337;28;20461;-74
2023/07/29 05:18:18;;;;;;;594.67;447.00;;;;;;;;;;5076493;28;20518;-73
2023/07/29 05:20:45;;;;;;;601.88;431.38;;;;;;;;;;5081275;28;20840;-73
2023/07/29 05:23:12;;;;;;;569.25;375.15;;;;;;;;;;5060927;28;20788;-74
2023/07/29 05:25:39;;;;;;;586.80;396.90;;;;;;;;;;5083487;28;20431;-75
2023/07/29 05:28:09;;;;;;;583.30;397.70;;;;;;;;;;5070569;28;20429;-75
2023/07/29 05:30:37;;;;;;;593.70;409.88;;;;;;;;;;5096348;28;20791;-74
2023/07/29 05:33:04;;;;;;;608.47;433.52;;;;;;;;;;5089318;28;20904;-75
2023/07/29 05:35:32;;;;;;;615.07;446.23;;;;;;;;;;5086322;28;20880;-74
2023/07/29 05:37:59;;;;;;;626.35;462.73;;;;;;;;;;5095677;28;20474;-74
2023/07/29 05:40:26;;;;;;;626.28;454.23;;;;;;;;;;5090194;28;20912;-74
2023/07/29 05:42:56;;;;;;;626.77;467.33;;;;;;;;;;5077287;28;20594;-74
2023/07/29 05:45:23;;;;;;;636.72;481.70;;;;;;;;;;5108857;28;20424;-74
2023/07/29 05:47:50;;;;;;;653.55;504.23;;;;;;;;;;5088831;28;20508;-76
2023/07/29 05:50:17;;;;;;;656.75;506.23;;;;;;;;;;5089726;28;20837;-75
2023/07/29 05:52:45;;;;;;;647.17;493.55;;;;;;;;;;5090600;28;20419;-77
2023/07/29 05:55:12;;;;;;;630.97;469.80;;;;;;;;;;5089541;28;20451;-75
2023/07/29 05:57:39;;;;;;;630.65;468.35;;;;;;;;;;5090136;28;20432;-75
2023/07/29 06:00:10;;;;;;;649.70;486.73;;;;;;;;;;5075526;28;20497;-75
2023/07/29 06:02:38;;;;;;;678.50;546.70;;;;;;;;;;5089525;28;20464;-75
2023/07/29 06:05:05;;;;;;;708.70;584.30;;;;;;;;;;5087975;28;20422;-74
2023/07/29 06:07:34;;;;;;;677.92;585.40;;;;;;;;;;5082614;28;20431;-75
2023/07/29 06:10:04;;;;;;;654.55;590.22;;;;;;;;;;5088484;28;20489;-74
2023/07/29 06:12:31;;;;;;;670.60;607.90;;;;;;;;;;5092732;28;20448;-74
2023/07/29 06:15:01;;;;;;;607.42;556.33;;;;;;;;;;5085147;28;20437;-73
2023/07/29 06:17:28;;;;;;;576.35;529.63;;;;;;;;;;5087963;28;20437;-73
2023/07/29 06:19:55;;;;;;;562.42;516.67;;;;;;;;;;5089469;28;20430;-75
2023/07/29 06:22:23;;;;;;;597.92;549.15;;;;;;;;;;5092611;28;20589;-74
2023/07/29 06:24:53;;;;;;;636.50;583.60;;;;;;;;;;5065486;28;20482;-73
2023/07/29 06:27:20;;;;;;;650.13;595.60;;;;;;;;;;5076896;28;20485;-74
2023/07/29 06:29:47;;;;;;;572.92;525.22;;;;;;;;;;5088276;28;20425;-74
2023/07/29 06:32:17;;;;;;;309.75;285.90;;;;;;;;;;5087880;28;20950;-73
2023/07/29 06:34:47;;;;;;;590.63;540.55;;;;;;;;;;5096617;28;20514;-73
2023/07/29 06:37:14;;;;;;;511.98;469.30;;;;;;;;;;5093601;28;20426;-73
2023/07/29 06:39:44;;;;;;;183.82;171.18;;;;;;;;;;5092981;28;20502;-72
2023/07/29 06:42:14;;;;;;;128.57;119.97;;;;;;;;;;5092994;28;20430;-72
2023/07/29 06:44:41;;;;;;;218.77;203.00;;;;;;;;;;5081620;28;20419;-71
2023/07/29 06:47:09;;;;;;;538.22;493.67;;;;;;;;;;5088628;28;21223;-72
2023/07/29 06:49:36;;;;;;;644.75;589.75;;;;;;;;;;5088503;28;20457;-73
2023/07/29 06:52:03;;;;;;;649.78;589.05;;;;;;;;;;5074210;28;20502;-73
2023/07/29 06:54:30;;;;;;;629.70;575.83;;;;;;;;;;5091787;28;20468;-73
2023/07/29 06:57:00;;;;;;;612.20;558.47;;;;;;;;;;5091644;28;20425;-72
2023/07/29 06:59:27;;;;;;;643.97;555.83;;;;;;;;;;5083057;28;20524;-72
2023/07/29 07:01:59;;;;;;;635.63;569.72;;;;;;;;;;5085167;28;20532;-72
2023/07/29 07:04:26;;;;;;;625.85;566.92;;;;;;;;;;5083020;28;20429;-72
2023/07/29 07:06:53;;;;;;;578.85;529.30;;;;;;;;;;5092068;28;20885;-73
2023/07/29 07:09:21;;;;;;;585.70;531.50;;;;;;;;;;5092611;28;20468;-72
2023/07/29 07:11:48;;;;;;;368.95;341.65;;;;;;;;;;5090302;28;20819;-72
2023/07/29 07:14:15;;;;;;;561.25;513.65;;;;;;;;;;5092176;28;20449;-72
2023/07/29 07:16:42;;;;;;;480.53;441.63;;;;;;;;;;5087818;28;20461;-71
2023/07/29 07:19:09;;;;;;;570.13;519.00;;;;;;;;;;5080267;28;20427;-69
2023/07/29 07:21:36;;;;;;;576.60;526.27;;;;;;;;;;5079875;28;20421;-71
2023/07/29 07:24:04;;;;;;;549.63;504.97;;;;;;;;;;5072709;28;20451;-69
2023/07/29 07:26:31;;;;;;;499.57;462.17;;;;;;;;;;5067565;28;20920;-70
2023/07/29 07:28:58;;;;;;;522.80;482.90;;;;;;;;;;5087555;28;20433;-70
2023/07/29 07:31:25;;;;;;;458.03;424.37;;;;;;;;;;5085093;28;20437;-69
2023/07/29 07:33:52;;;;;;;489.98;450.33;;;;;;;;;;5079010;28;20436;-70
2023/07/29 07:36:19;;;;;;;64.37;60.43;;;;;;;;;;5085105;28;20986;-69
2023/07/29 07:38:47;;;;;;;237.68;221.52;;;;;;;;;;5086210;28;20460;-70
2023/07/29 07:41:14;;;;;;;84.57;79.63;;;;;;;;;;5083505;28;20874;-70
2023/07/29 07:43:41;;;;;;;483.90;447.00;;;;;;;;;;5087660;28;20425;-69
2023/07/29 07:46:08;;;;;;;1.90;1.80;;;;;;;;;;5086997;28;20438;-69
2023/07/29 07:48:36;;;;;;;1.95;1.42;;;;;;;;;;5083126;28;20429;-69
2023/07/29 07:51:10;;;;;;;1.73;1.20;;;;;;;;;;5086134;28;20433;-70
2023/07/29 07:53:38;;;;;;;1.50;1.40;;;;;;;;;;5082499;28;20839;-69
2023/07/29 07:56:08;;;;;;;1.20;1.20;;;;;;;;;;5081132;28;20477;-69
2023/07/29 07:58:35;;;;;;;1.33;1.23;;;;;;;;;;5085978;28;20433;-70
2023/07/29 08:01:03;;;;;;;232.82;211.45;;;;;;;;;;5083460;28;20444;-70
2023/07/29 08:03:31;;;;;;;675.15;525.78;;;;;;;;;;5066448;28;20794;-70
2023/07/29 08:05:58;;;;;;;639.70;468.48;;;;;;;;;;5082665;28;20433;-71
2023/07/29 08:08:26;;;;;;;649.50;501.63;;;;;;;;;;5081623;28;20459;-71
2023/07/29 08:10:57;;;;;;;735.03;588.83;;;;;;;;;;5081994;28;20432;-71
2023/07/29 08:13:24;;;;;;;705.95;561.38;;;;;;;;;;5085638;28;20437;-71
2023/07/29 08:15:55;;;;;;;742.85;610.97;;;;;;;;;;5068150;28;20429;-70
2023/07/29 08:18:22;;;;;;;837.22;689.78;;;;;;;;;;5073884;28;20435;-70
2023/07/29 08:21:02;;;;;;;903.35;734.10;;;;;;;;;;5079110;28;20421;-70
2023/07/29 08:23:33;;;;;;;952.40;780.17;;;;;;;;;;5084419;28;20428;-70
2023/07/29 08:26:03;;;;;;;957.38;787.15;;;;;;;;;;5064334;28;20437;-70
2023/07/29 08:28:35;;;;;;;966.33;802.38;;;;;;;;;;5058838;28;20427;-71
2023/07/29 08:31:02;;;;;;;965.10;801.80;;;;;;;;;;5080526;28;21068;-71
2023/07/29 08:33:30;;;;;;;966.33;803.83;;;;;;;;;;5073066;28;20430;-70
2023/07/29 08:35:58;;;;;;;972.50;808.50;;;;;;;;;;5084283;28;20436;-69
2023/07/29 08:38:25;;;;;;;969.30;810.13;;;;;;;;;;5081685;28;20436;-70
2023/07/29 08:41:11;;;;;;;885.80;748.95;;;;;;;;;;5063569;28;20428;-70
2023/07/29 08:43:39;;;;;;;991.15;870.47;;;;;;;;;;5084746;28;20628;-69
2023/07/29 08:46:07;;;;;;;988.40;824.42;;;;;;;;;;5081817;28;20431;-69
2023/07/29 08:48:44;;;;;;;978.55;810.80;;;;;;;;;;5081379;28;20481;-70
2023/07/29 08:51:11;;;;;;;976.20;808.20;;;;;;;;;;5075258;28;20439;-69
2023/07/29 08:53:39;;;;;;;981.03;815.58;;;;;;;;;;5083557;28;20434;-69
2023/07/29 08:56:07;;;;;;;993.58;834.67;;;;;;;;;;5085523;28;20430;-69
2023/07/29 08:58:38;;;;;;;1002.60;846.42;;;;;;;;;;5088411;28;20426;-69
2023/07/29 09:01:06;;;;;;;1002.25;845.55;;;;;;;;;;5077695;28;20508;-70
2023/07/29 09:03:34;;;;;;;1009.40;858.50;;;;;;;;;;5069827;28;20976;-70
2023/07/29 09:06:07;;;;;;;1004.22;852.63;;;;;;;;;;5077699;28;21198;-70
2023/07/29 09:08:38;;;;;;;992.40;834.00;;;;;;;;;;5080267;28;20432;-70
2023/07/29 09:11:08;;;;;;;996.38;840.75;;;;;;;;;;5090243;28;20785;-70
2023/07/29 09:13:35;;;;;;;1021.37;875.87;;;;;;;;;;5090405;28;20432;-70
2023/07/29 09:16:05;;;;;;;1025.57;879.75;;;;;;;;;;5089692;28;20453;-71
2023/07/29 09:18:32;;;;;;;1028.90;893.78;;;;;;;;;;5090091;28;20442;-70
2023/07/29 09:21:00;;;;;;;1018.75;910.10;;;;;;;;;;5082028;28;20457;-71
2023/07/29 09:23:28;;;;;;;1007.92;924.42;;;;;;;;;;5088576;28;20428;-70
2023/07/29 09:26:10;;;;;;;1015.75;923.42;;;;;;;;;;5080523;28;20437;-70
2023/07/29 09:28:41;;;;;;;634.75;579.40;;;;;;;;;;5058037;28;21481;-69
2023/07/29 09:31:19;;;;;;;592.33;538.15;;;;;;;;;;5086900;28;20449;-71
2023/07/29 09:33:46;;;;;;;243.05;223.88;;;;;;;;;;5069998;28;20528;-71
2023/07/29 09:36:16;;;;;;;202.98;187.40;;;;;;;;;;5080456;28;20904;-69
2023/07/29 09:38:45;;;;;;;53.08;49.65;;;;;;;;;;5082338;28;20505;-70
2023/07/29 09:41:14;;;;;;;1.70;1.00;;;;;;;;;;5080026;28;20430;-70
2023/07/29 09:43:41;;;;;;;0.80;0.80;;;;;;;;;;5087586;28;20488;-71
2023/07/29 09:46:08;;;;;;;55.72;52.10;;;;;;;;;;5083331;28;20421;-71
2023/07/29 09:48:42;;;;;;;908.22;832.42;;;;;;;;;;5082587;28;20429;-69
2023/07/29 09:51:10;;;;;;;863.58;790.85;;;;;;;;;;5086507;28;20426;-71
2023/07/29 09:53:44;;;;;;;958.40;876.45;;;;;;;;;;5080889;28;20455;-71
2023/07/29 09:56:16;;;;;;;961.07;878.63;;;;;;;;;;5081355;28;20950;-72
2023/07/29 09:58:43;;;;;;;427.65;392.02;;;;;;;;;;5060202;28;20441;-71
2023/07/29 10:01:10;;;;;;;730.70;666.33;;;;;;;;;;5085275;28;20518;-71
2023/07/29 10:03:38;;;;;;;883.75;807.90;;;;;;;;;;5079423;28;20454;-73
2023/07/29 10:06:06;;;;;;;428.95;389.90;;;;;;;;;;5082861;28;20489;-71
2023/07/29 10:08:35;;;;;;;636.47;579.17;;;;;;;;;;5078061;28;20465;-72
2023/07/29 10:11:02;;;;;;;129.23;119.78;;;;;;;;;;5075983;28;20442;-73
2023/07/29 10:13:30;;;;;;;155.05;143.35;;;;;;;;;;5086324;28;20429;-72
2023/07/29 10:15:57;;;;;;;175.90;162.40;;;;;;;;;;5079632;28;20894;-73
2023/07/29 10:18:25;;;;;;;239.02;219.98;;;;;;;;;;5074682;28;21190;-72
2023/07/29 10:20:53;;;;;;;285.75;262.35;;;;;;;;;;5078713;28;20421;-73
2023/07/29 10:23:22;;;;;;;820.53;749.47;;;;;;;;;;5077807;28;20924;-74
2023/07/29 10:26:16;;;;;;;897.67;822.30;;;;;;;;;;5084051;28;21109;-72
2023/07/29 10:28:47;;;;;;;945.17;866.55;;;;;;;;;;5084135;28;20434;-71
2023/07/29 10:31:17;;;;;;;928.70;851.10;;;;;;;;;;5083887;28;20430;-72
2023/07/29 10:33:45;;;;;;;912.30;833.92;;;;;;;;;;5071961;28;20450;-72
2023/07/29 10:36:14;;;;;;;959.63;872.65;;;;;;;;;;5075409;28;20444;-72
2023/07/29 10:38:42;;;;;;;705.03;642.27;;;;;;;;;;5079793;28;20429;-73
2023/07/29 10:41:12;;;;;;;436.98;395.58;;;;;;;;;;5080052;28;20882;-72
2023/07/29 10:43:42;;;;;;;469.83;426.10;;;;;;;;;;5076804;28;20440;-71
2023/07/29 10:46:19;;;;;;;311.35;285.30;;;;;;;;;;5079892;28;21006;-71
2023/07/29 10:48:58;;;;;;;204.65;188.80;;;;;;;;;;5074629;28;20440;-73
2023/07/29 10:51:29;;;;;;;56.85;53.15;;;;;;;;;;5063307;28;20522;-70
2023/07/29 10:53:58;;;;;;;2.22;2.03;;;;;;;;;;5083446;28;20421;-72
2023/07/29 10:56:27;;;;;;;3.33;3.22;;;;;;;;;;5082497;28;20429;-74
2023/07/29 10:59:00;;;;;;;1.17;1.00;;;;;;;;;;5081378;28;20465;-73
2023/07/29 11:01:34;;;;;;;1.10;1.10;;;;;;;;;;5079442;28;20479;-72
2023/07/29 11:04:02;;;;;;;1.08;1.00;;;;;;;;;;5086491;28;20429;-73
2023/07/29 11:06:29;;;;;;;241.90;222.05;;;;;;;;;;5063607;28;20437;-73
2023/07/29 11:08:56;;;;;;;181.75;166.32;;;;;;;;;;5085689;28;20446;-73
2023/07/29 11:11:24;;;;;;;44.60;40.33;;;;;;;;;;5070384;28;20438;-73
2023/07/29 11:13:51;;;;;;;2.00;1.90;;;;;;;;;;5085430;28;20487;-73
2023/07/29 11:16:20;;;;;;;53.40;48.00;;;;;;;;;;5080223;28;20429;-73
2023/07/29 11:18:48;;;;;;;437.80;393.73;;;;;;;;;;5071073;28;20791;-74
2023/07/29 11:21:15;;;;;;;658.30;599.17;;;;;;;;;;5084402;28;20931;-73
2023/07/29 11:23:42;;;;;;;673.38;612.35;;;;;;;;;;5064976;28;20422;-74
2023/07/29 11:26:10;;;;;;;236.25;216.80;;;;;;;;;;5083121;28;21262;-75
2023/07/29 11:28:40;;;;;;;96.88;88.90;;;;;;;;;;5086795;28;20425;-75
2023/07/29 11:31:08;;;;;;;1.48;1.38;;;;;;;;;;5079858;28;20436;-76
2023/07/29 11:33:35;;;;;;;286.88;261.77;;;;;;;;;;5083157;28;20443;-74
2023/07/29 11:36:02;;;;;;;296.17;271.05;;;;;;;;;;5087557;28;20426;-78
2023/07/29 11:38:36;;;;;;;98.10;91.03;;;;;;;;;;5083952;28;20711;-74
2023/07/29 11:41:03;;;;;;;25.42;23.95;;;;;;;;;;5088159;28;20957;-75
2023/07/29 11:43:37;;;;;;;77.60;71.40;;;;;;;;;;5087932;28;20794;-79
2023/07/29 11:46:04;;;;;;;43.55;40.17;;;;;;;;;;5081254;28;20918;-78
2023/07/29 11:48:32;;;;;;;1036.43;932.95;;;;;;;;;;5084877;28;20430;-75
2023/07/29 11:50:59;;;;;;;1083.50;977.45;;;;;;;;;;5069864;28;20438;-77
2023/07/29 11:53:32;;;;;;;1000.20;903.92;;;;;;;;;;5088289;28;20478;-78
2023/07/29 11:56:00;;;;;;;4.22;2.78;;;;;;;;;;5084529;28;20427;-75
2023/07/29 11:58:27;;;;;;;2.80;1.40;;;;;;;;;;5081913;28;20922;-75
2023/07/29 12:00:54;;;;;;;2.00;1.10;;;;;;;;;;5097692;28;20434;-76
2023/07/29 12:03:22;;;;;;;1.27;1.10;;;;;;;;;;5078647;28;20430;-76
2023/07/29 12:05:49;;;;;;;1.20;1.10;;;;;;;;;;5103808;28;20428;-73
2023/07/29 12:08:17;;;;;;;1.08;1.08;;;;;;;;;;5088006;28;20519;-76
2023/07/29 12:10:44;;;;;;;2.20;1.10;;;;;;;;;;5097955;28;20431;-79
2023/07/29 12:13:11;;;;;;;0.90;0.90;;;;;;;;;;5091952;28;20426;-78
2023/07/29 12:15:40;;;;;;;0.90;0.90;;;;;;;;;;5090025;28;20426;-75
2023/07/29 12:18:07;;;;;;;1.10;1.10;;;;;;;;;;5094895;28;20525;-77
2023/07/29 12:20:35;;;;;;;1.10;1.10;;;;;;;;;;5082815;28;20430;-78
2023/07/29 12:23:09;;;;;;;1.58;1.08;;;;;;;;;;5090318;28;20423;-77
2023/07/29 12:25:36;;;;;;;1.00;1.00;;;;;;;;;;5088766;28;20430;-78
2023/07/29 12:28:06;;;;;;;1.00;0.90;;;;;;;;;;5083758;28;20437;-75
2023/07/29 12:30:34;;;;;;;1.10;1.10;;;;;;;;;;5089448;28;20433;-79
2023/07/29 12:33:02;;;;;;;1.50;1.20;;;;;;;;;;5080646;28;20505;-75
2023/07/29 12:35:36;;;;;;;1.02;0.80;;;;;;;;;;5068139;28;20518;-78
2023/07/29 12:38:03;;;;;;;2.30;1.00;;;;;;;;;;5087106;28;20471;-76
2023/07/29 12:40:34;;;;;;;1.70;1.00;;;;;;;;;;5081620;28;20439;-76
2023/07/29 12:43:01;;;;;;;1.20;1.10;;;;;;;;;;5085753;28;20431;-76
2023/07/29 12:45:28;;;;;;;1.00;1.00;;;;;;;;;;5089233;28;20434;-75
2023/07/29 12:47:56;;;;;;;1.27;0.90;;;;;;;;;;5086305;28;20423;-76
2023/07/29 12:50:23;;;;;;;1.00;1.00;;;;;;;;;;5094159;28;20459;-81
2023/07/29 12:52:51;;;;;;;1.10;1.10;;;;;;;;;;5085673;28;20427;-78
2023/07/29 12:55:18;;;;;;;1.20;1.10;;;;;;;;;;5082373;28;20504;-84
2023/07/29 12:57:50;;;;;;;0.93;0.93;;;;;;;;;;5081463;28;20503;-78
2023/07/29 13:00:17;;;;;;;1.00;1.00;;;;;;;;;;5090670;28;20826;-79
2023/07/29 13:02:44;;;;;;;0.80;0.80;;;;;;;;;;5082406;28;20432;-77
2023/07/29 13:05:12;;;;;;;2.75;1.02;;;;;;;;;;5089877;28;20512;-75
2023/07/29 13:07:39;;;;;;;1.50;1.00;;;;;;;;;;5074109;28;20421;-80
2023/07/29 13:10:07;;;;;;;1.20;1.10;;;;;;;;;;5083927;28;20849;-76
2023/07/29 13:12:34;;;;;;;2.40;1.20;;;;;;;;;;5086957;28;20930;-78
2023/07/29 13:15:05;;;;;;;1.90;1.00;;;;;;;;;;5088970;28;20430;-75
2023/07/29 13:17:33;;;;;;;6.13;5.77;;;;;;;;;;5078246;28;20429;-77
2023/07/29 13:20:00;;;;;;;1.10;1.10;;;;;;;;;;5083158;28;20438;-83
2023/07/29 13:22:27;;;;;;;1.10;1.10;;;;;;;;;;5086770;28;20428;-80
2023/07/29 13:24:54;;;;;;;208.65;192.38;;;;;;;;;;5080282;28;20490;-81
2023/07/29 13:27:23;;;;;;;11.13;7.60;;;;;;;;;;5086219;28;20426;-81
2023/07/29 13:29:50;;;;;;;105.50;97.33;;;;;;;;;;5086024;28;20433;-79
2023/07/29 13:32:19;;;;;;;22.80;21.38;;;;;;;;;;5080903;28;20436;-75
2023/07/29 13:34:46;;;;;;;102.15;94.35;;;;;;;;;;5078669;28;20520;-76
2023/07/29 13:37:13;;;;;;;192.45;176.65;;;;;;;;;;5088385;28;20425;-78
2023/07/29 13:39:40;;;;;;;17.33;16.13;;;;;;;;;;5084952;28;20431;-78
2023/07/29 13:42:08;;;;;;;18.67;17.27;;;;;;;;;;5082917;28;20430;-77
2023/07/29 13:44:35;;;;;;;231.95;213.23;;;;;;;;;;5082337;28;20434;-78
2023/07/29 13:47:02;;;;;;;10.90;10.18;;;;;;;;;;5085753;28;20538;-77
2023/07/29 13:49:29;;;;;;;229.82;211.23;;;;;;;;;;5089732;28;20463;-79
2023/07/29 13:51:56;;;;;;;31.30;29.27;;;;;;;;;;5090260;28;20433;-80
2023/07/29 13:54:24;;;;;;;1.40;1.40;;;;;;;;;;5073309;28;20426;-74
2023/07/29 13:56:51;;;;;;;1.10;1.10;;;;;;;;;;5083879;28;20481;-79
2023/07/29 13:59:18;;;;;;;2.10;1.10;;;;;;;;;;5081372;28;20438;-77
2023/07/29 14:01:45;;;;;;;12.95;12.00;;;;;;;;;;5073716;28;20945;-75
2023/07/29 14:04:15;;;;;;;4.07;3.88;;;;;;;;;;5085118;28;20452;-78
2023/07/29 14:06:46;;;;;;;1.73;1.73;;;;;;;;;;5086501;28;20418;-79
2023/07/29 14:09:21;;;;;;;2.88;2.67;;;;;;;;;;5083813;28;20421;-81
2023/07/29 14:11:49;;;;;;;204.75;187.25;;;;;;;;;;5088295;28;21103;-77
2023/07/29 14:14:18;;;;;;;208.73;191.02;;;;;;;;;;5086326;28;20433;-78